Time,TemperatureF,DewpointF,PressureIn,WindDirection,WindDirectionDegrees,WindSpeedMPH,WindSpeedGustMPH,Humidity,HourlyPrecipIn,Conditions,Clouds,dailyrainin,SoftwareType,DateUTC
2013-04-12 00:10:00,37.9,29.7,29.67,West,260,10.0,10.0,72,0.00,OVC,OVC,0.00,WeatherDisplay:10.37,2013-04-12 05:10:00,
2013-04-12 00:40:00,37.9,28.7,29.67,West,260,9.0,9.0,69,0.00,OVC,OVC,0.00,WeatherDisplay:10.37,2013-04-12 05:40:00,
2013-04-12 01:10:00,37.9,28.7,29.67,West,260,9.0,9.0,69,0.00,OVC,OVC,0.00,WeatherDisplay:10.37,2013-04-12 06:10:00,
2013-04-12 01:40:00,37.9,28.7,29.67,West,260,10.0,10.0,69,0.00,OVC,OVC,0.00,WeatherDisplay:10.37,2013-04-12 06:40:00,
2013-04-12 02:10:00,37.9,28.7,29.67,West,260,10.0,10.0,69,0.00,OVC,OVC,0.00,WeatherDisplay:10.37,2013-04-12 07:10:00,
2013-04-12 02:40:00,37.0,28.8,29.66,WSW,250,10.0,10.0,72,0.00,OVC,OVC,0.00,WeatherDisplay:10.37,2013-04-12 07:40:00,
2013-04-12 03:10:00,37.0,28.8,29.66,WSW,250,10.0,10.0,72,0.00,OVC,OVC,0.00,WeatherDisplay:10.37,2013-04-12 08:10:00,
2013-04-12 03:40:00,37.0,28.8,29.65,WSW,250,10.0,10.0,72,0.00,OVC,OVC,0.00,WeatherDisplay:10.37,2013-04-12 08:40:00,
2013-04-12 04:10:00,37.0,28.8,29.65,WSW,250,10.0,10.0,72,0.00,OVC,OVC,0.00,WeatherDisplay:10.37,2013-04-12 09:10:00,
2013-04-12 04:40:00,37.0,29.8,29.64,WSW,240,10.0,10.0,75,0.00,OVC,OVC,0.00,WeatherDisplay:10.37,2013-04-12 09:40:00,
2013-04-12 05:10:00,37.0,29.8,29.64,WSW,240,10.0,10.0,75,0.00,OVC,OVC,0.00,WeatherDisplay:10.37,2013-04-12 10:10:00,
2013-04-12 05:40:00,37.0,29.8,29.64,WSW,240,10.0,10.0,75,0.00,OVC,OVC,0.00,WeatherDisplay:10.37,2013-04-12 10:40:00,
2013-04-12 06:10:00,37.0,29.8,29.64,WSW,240,10.0,10.0,75,0.00,OVC,OVC,0.00,WeatherDisplay:10.37,2013-04-12 11:10:00,
2013-04-12 06:40:00,37.0,30.8,29.64,WSW,240,12.0,12.0,78,0.00,OVC,OVC,0.00,WeatherDisplay:10.37,2013-04-12 11:40:00,
2013-04-12 07:10:00,37.0,30.8,29.64,WSW,240,12.0,12.0,78,0.00,OVC,OVC,0.00,WeatherDisplay:10.37,2013-04-12 12:10:00,
2013-04-12 07:40:00,37.0,31.8,29.65,WSW,240,14.0,14.0,81,0.00,OVC,OVC,0.00,WeatherDisplay:10.37,2013-04-12 12:40:00,
2013-04-12 08:10:00,37.0,31.8,29.65,WSW,240,14.0,14.0,81,0.00,OVC,OVC,0.00,WeatherDisplay:10.37,2013-04-12 13:10:00,
2013-04-12 08:40:00,37.9,31.7,29.67,WSW,240,14.0,14.0,78,0.00,OVC,OVC,0.00,WeatherDisplay:10.37,2013-04-12 13:40:00,
2013-04-12 09:10:00,37.9,31.7,29.67,WSW,240,14.0,14.0,78,0.00,OVC,OVC,0.00,WeatherDisplay:10.37,2013-04-12 14:10:00,
2013-04-12 09:40:00,37.9,31.7,29.68,WSW,250,13.0,13.0,78,0.00,OVC,OVC,0.00,WeatherDisplay:10.37,2013-04-12 14:40:00,
2013-04-12 10:10:00,37.9,31.7,29.68,WSW,250,13.0,13.0,78,0.00,OVC,OVC,0.00,WeatherDisplay:10.37,2013-04-12 15:10:00,
2013-04-12 10:40:00,39.0,33.1,29.69,West,260,16.0,25.0,79,0.00,OVC,OVC,0.00,WeatherDisplay:10.37,2013-04-12 15:40:00,
2013-04-12 11:10:00,37.9,33.8,29.70,WSW,240,14.0,25.0,85,0.00,-RA,-RA,0.00,WeatherDisplay:10.37,2013-04-12 16:10:00,
2013-04-12 11:40:00,37.9,35.0,29.72,WSW,250,10.0,24.0,89,0.00,-RA,-RA,0.00,WeatherDisplay:10.37,2013-04-12 16:40:00,
2013-04-12 12:10:00,37.9,35.0,29.72,WSW,250,10.0,24.0,89,0.00,-RA,-RA,0.00,WeatherDisplay:10.37,2013-04-12 17:10:00,
2013-04-12 12:40:00,39.9,33.9,29.74,West,260,13.0,26.0,79,0.00,OVC,OVC,0.00,WeatherDisplay:10.37,2013-04-12 17:40:00,
2013-04-12 13:10:00,39.9,33.9,29.74,West,260,13.0,26.0,79,0.00,OVC,OVC,0.00,WeatherDisplay:10.37,2013-04-12 18:10:00,
2013-04-12 14:40:00,41.0,33.7,29.78,WSW,250,14.0,25.0,75,0.00,OVC,OVC,0.00,WeatherDisplay:10.37,2013-04-12 19:40:00,
2013-04-12 15:10:00,41.0,33.7,29.78,WSW,250,14.0,25.0,75,0.00,OVC,OVC,0.00,WeatherDisplay:10.37,2013-04-12 20:10:00,
2013-04-12 15:40:00,42.1,31.9,29.80,West,270,15.0,30.0,67,0.00,OVC,OVC,0.00,WeatherDisplay:10.37,2013-04-12 20:40:00,
2013-04-12 16:10:00,42.1,31.9,29.82,West,280,16.0,33.0,67,0.00,OVC,OVC,0.00,WeatherDisplay:10.37,2013-04-12 21:10:00,
2013-04-12 16:40:00,42.1,31.9,29.82,West,270,17.0,28.0,67,0.00,OVC,OVC,0.00,WeatherDisplay:10.37,2013-04-12 21:40:00,
2013-04-12 17:10:00,42.1,31.9,29.82,West,270,17.0,28.0,67,0.00,OVC,OVC,0.00,WeatherDisplay:10.37,2013-04-12 22:10:00,
2013-04-12 17:40:00,43.0,30.8,29.83,WNW,290,16.0,29.0,62,0.00,OVC,OVC,0.00,WeatherDisplay:10.37,2013-04-12 22:40:00,
2013-04-12 18:10:00,43.0,30.8,29.83,WNW,290,16.0,29.0,62,0.00,OVC,OVC,0.00,WeatherDisplay:10.37,2013-04-12 23:10:00,
2013-04-12 18:40:00,42.1,30.8,29.86,WNW,290,10.0,23.0,64,0.00,OVC,OVC,0.00,WeatherDisplay:10.37,2013-04-12 23:40:00,
2013-04-12 19:10:00,42.1,30.8,29.86,WNW,290,10.0,23.0,64,0.00,OVC,OVC,0.00,WeatherDisplay:10.37,2013-04-13 00:10:00,
2013-04-12 19:40:00,42.1,31.9,29.87,West,280,7.0,7.0,67,0.00,OVC,OVC,0.00,WeatherDisplay:10.37,2013-04-13 00:40:00,
2013-04-12 20:10:00,42.1,31.9,29.87,West,280,7.0,7.0,67,0.00,OVC,OVC,0.00,WeatherDisplay:10.37,2013-04-13 01:10:00,
2013-04-12 20:40:00,42.1,31.9,29.87,West,260,12.0,12.0,67,0.00,OVC,OVC,0.00,WeatherDisplay:10.37,2013-04-13 01:40:00,
2013-04-12 21:10:00,42.1,31.9,29.87,West,260,12.0,12.0,67,0.00,OVC,OVC,0.00,WeatherDisplay:10.37,2013-04-13 02:10:00,
2013-04-12 21:40:00,41.0,32.0,29.89,West,260,10.0,10.0,70,0.00,OVC,OVC,0.00,WeatherDisplay:10.37,2013-04-13 02:40:00,
2013-04-12 22:10:00,41.0,32.0,29.89,West,260,10.0,10.0,70,0.00,OVC,OVC,0.00,WeatherDisplay:10.37,2013-04-13 03:10:00,
2013-04-12 22:40:00,41.0,32.0,29.91,West,260,9.0,9.0,70,0.00,OVC,OVC,0.00,WeatherDisplay:10.37,2013-04-13 03:40:00,
2013-04-12 23:10:00,41.0,32.0,29.91,West,260,9.0,9.0,70,0.00,OVC,OVC,0.00,WeatherDisplay:10.37,2013-04-13 04:10:00,
2013-04-12 23:40:00,41.0,30.9,29.92,West,280,12.0,12.0,67,0.00,OVC,OVC,0.00,WeatherDisplay:10.37,2013-04-13 04:40:00,